Time;durP1;ratioP1;P1;durP2;ratioP2;P2;SDS_P1;SDS_P2;PMS_P1;PMS_P2;Temp;Humidity;BMP_temperature;BMP_pressure;BME280_temperature;BME280_humidity;BME280_pressure;Samples;Min_cycle;Max_cycle;Signal;HPM_P1;HPM_P2
2022/10/26 00:01:25;;;;;;;1.70;1.60;;;;;;;;;;4932145;29;20713;-69
2022/10/26 00:03:52;;;;;;;1.67;1.57;;;;;;;;;;4932296;29;20212;-69
2022/10/26 00:06:21;;;;;;;1.30;1.30;;;;;;;;;;4932196;29;20670;-69
2022/10/26 00:08:48;;;;;;;1.80;1.70;;;;;;;;;;4932581;29;20204;-68
2022/10/26 00:11:16;;;;;;;1.80;1.77;;;;;;;;;;4932314;29;20287;-69
2022/10/26 00:13:43;;;;;;;2.40;1.90;;;;;;;;;;4932207;29;20227;-69
2022/10/26 00:16:12;;;;;;;2.60;2.20;;;;;;;;;;4931751;29;20215;-69
2022/10/26 00:18:39;;;;;;;3.20;1.77;;;;;;;;;;4932013;29;20204;-69
2022/10/26 00:21:06;;;;;;;1.70;1.60;;;;;;;;;;4931821;29;20946;-69
2022/10/26 00:23:35;;;;;;;1.77;1.67;;;;;;;;;;4931747;29;20207;-69
2022/10/26 00:26:02;;;;;;;2.73;1.50;;;;;;;;;;4932077;29;20218;-69
2022/10/26 00:28:29;;;;;;;2.07;1.87;;;;;;;;;;4931580;29;20207;-68
2022/10/26 00:31:00;;;;;;;1.60;1.50;;;;;;;;;;4932137;29;20208;-69
2022/10/26 00:33:28;;;;;;;1.73;1.67;;;;;;;;;;4931864;29;20211;-69
2022/10/26 00:35:56;;;;;;;1.70;1.60;;;;;;;;;;4932172;29;20223;-69
2022/10/26 00:38:23;;;;;;;2.00;1.90;;;;;;;;;;4931704;29;20211;-68
2022/10/26 00:40:51;;;;;;;2.07;1.93;;;;;;;;;;4931666;29;20247;-69
2022/10/26 00:43:38;;;;;;;2.00;1.87;;;;;;;;;;4932110;29;20203;-69
2022/10/26 00:46:07;;;;;;;2.03;1.73;;;;;;;;;;4931896;29;20209;-69
2022/10/26 00:48:37;;;;;;;2.17;1.97;;;;;;;;;;4931335;29;20220;-69
2022/10/26 00:51:06;;;;;;;7.33;2.43;;;;;;;;;;4931619;29;20213;-68
2022/10/26 00:53:33;;;;;;;2.03;1.60;;;;;;;;;;4931445;29;20597;-69
2022/10/26 00:56:02;;;;;;;1.67;1.57;;;;;;;;;;4931216;29;20243;-69
2022/10/26 00:58:29;;;;;;;2.00;1.87;;;;;;;;;;4931481;29;20207;-68
2022/10/26 01:00:56;;;;;;;5.13;2.17;;;;;;;;;;4930997;29;20579;-69
2022/10/26 01:03:24;;;;;;;3.23;2.00;;;;;;;;;;4931066;29;20215;-68
2022/10/26 01:05:52;;;;;;;5.53;2.10;;;;;;;;;;4931910;29;20291;-69
2022/10/26 01:08:20;;;;;;;1.83;1.73;;;;;;;;;;4931184;29;20204;-68
2022/10/26 01:10:47;;;;;;;7.20;2.00;;;;;;;;;;4931208;29;20227;-69
2022/10/26 01:13:16;;;;;;;2.23;1.83;;;;;;;;;;4931471;29;20242;-69
2022/10/26 01:15:49;;;;;;;1.53;1.40;;;;;;;;;;4931270;29;20235;-68
2022/10/26 01:18:21;;;;;;;3.00;1.60;;;;;;;;;;4931295;29;20208;-69
2022/10/26 01:20:56;;;;;;;4.73;1.90;;;;;;;;;;4931596;29;20212;-68
2022/10/26 01:23:27;;;;;;;5.63;2.13;;;;;;;;;;4930767;29;20222;-70
2022/10/26 01:26:09;;;;;;;1.93;1.53;;;;;;;;;;4931088;29;20678;-67
2022/10/26 01:28:46;;;;;;;5.20;1.77;;;;;;;;;;4931118;29;20260;-68
2022/10/26 01:31:17;;;;;;;1.97;1.87;;;;;;;;;;4930797;29;20211;-68
2022/10/26 01:33:45;;;;;;;2.20;1.87;;;;;;;;;;4931144;29;20223;-68
2022/10/26 01:36:26;;;;;;;3.13;1.70;;;;;;;;;;4931175;29;20211;-67
2022/10/26 01:38:56;;;;;;;1.83;1.77;;;;;;;;;;4931258;29;20690;-68
2022/10/26 01:41:26;;;;;;;2.73;1.70;;;;;;;;;;4930759;29;20226;-68
2022/10/26 01:43:56;;;;;;;1.70;1.60;;;;;;;;;;4930859;29;20211;-68
2022/10/26 01:46:26;;;;;;;5.33;2.57;;;;;;;;;;4930965;29;20670;-67
2022/10/26 01:48:56;;;;;;;3.53;2.00;;;;;;;;;;4930502;29;20640;-70
2022/10/26 01:51:24;;;;;;;6.87;2.67;;;;;;;;;;4931033;29;20222;-68
2022/10/26 01:53:51;;;;;;;1.90;1.80;;;;;;;;;;4930121;29;20261;-67
2022/10/26 01:56:20;;;;;;;1.80;1.80;;;;;;;;;;4929925;29;20734;-68
2022/10/26 01:58:54;;;;;;;4.73;1.80;;;;;;;;;;4930305;29;20219;-68
2022/10/26 02:01:33;;;;;;;1.63;1.47;;;;;;;;;;4930804;29;20211;-67
2022/10/26 02:04:05;;;;;;;3.23;1.63;;;;;;;;;;4930950;29;20227;-68
2022/10/26 02:06:38;;;;;;;2.10;1.73;;;;;;;;;;4931064;29;20212;-68
2022/10/26 02:09:09;;;;;;;4.17;1.93;;;;;;;;;;4930742;29;20222;-68
2022/10/26 02:11:38;;;;;;;3.00;1.50;;;;;;;;;;4930074;29;20721;-67
2022/10/26 02:14:10;;;;;;;3.37;2.17;;;;;;;;;;4930613;29;20232;-68
2022/10/26 02:16:42;;;;;;;3.00;1.80;;;;;;;;;;4930985;29;20223;-68
2022/10/26 02:19:11;;;;;;;2.30;2.10;;;;;;;;;;4930719;29;20215;-68
2022/10/26 02:21:41;;;;;;;1.93;1.80;;;;;;;;;;4930868;29;20447;-68
2022/10/26 02:24:11;;;;;;;2.13;1.93;;;;;;;;;;4930595;29;20208;-70
2022/10/26 02:26:40;;;;;;;1.97;1.87;;;;;;;;;;4929345;29;20678;-68
2022/10/26 02:29:08;;;;;;;2.33;1.90;;;;;;;;;;4930399;29;20579;-68
2022/10/26 02:31:36;;;;;;;1.63;1.50;;;;;;;;;;4930523;29;20230;-68
2022/10/26 02:34:07;;;;;;;1.70;1.60;;;;;;;;;;4930660;29;20240;-68
2022/10/26 02:36:36;;;;;;;5.10;1.40;;;;;;;;;;4929685;29;20670;-68
2022/10/26 02:39:04;;;;;;;3.03;1.53;;;;;;;;;;4930557;29;20220;-68
2022/10/26 02:41:31;;;;;;;1.60;1.50;;;;;;;;;;4929836;29;20204;-68
2022/10/26 02:44:01;;;;;;;1.50;1.40;;;;;;;;;;4930424;29;20207;-68
2022/10/26 02:46:28;;;;;;;3.03;1.80;;;;;;;;;;4930241;29;20707;-68
2022/10/26 02:48:56;;;;;;;1.50;1.40;;;;;;;;;;4929290;29;20211;-68
2022/10/26 02:51:28;;;;;;;1.57;1.47;;;;;;;;;;4929655;29;20215;-68
2022/10/26 02:53:58;;;;;;;2.17;1.97;;;;;;;;;;4928995;29;20247;-68
2022/10/26 02:56:28;;;;;;;3.87;1.60;;;;;;;;;;4929270;29;20247;-68
2022/10/26 02:58:57;;;;;;;2.70;1.80;;;;;;;;;;4929148;29;20663;-68
2022/10/26 03:01:24;;;;;;;2.20;1.77;;;;;;;;;;4920732;29;20584;-68
2022/10/26 03:03:51;;;;;;;2.53;1.70;;;;;;;;;;4932544;29;20216;-68
2022/10/26 03:06:22;;;;;;;5.17;2.20;;;;;;;;;;4932838;29;20208;-67
2022/10/26 03:08:51;;;;;;;3.30;2.03;;;;;;;;;;4932964;29;20269;-67
2022/10/26 03:11:18;;;;;;;1.60;1.43;;;;;;;;;;4932538;29;20218;-68
2022/10/26 03:13:45;;;;;;;2.57;2.13;;;;;;;;;;4932678;29;20229;-68
2022/10/26 03:16:12;;;;;;;7.90;2.20;;;;;;;;;;4932279;29;20698;-68
2022/10/26 03:18:39;;;;;;;5.50;2.50;;;;;;;;;;4932170;29;20210;-68
2022/10/26 03:21:07;;;;;;;3.23;1.73;;;;;;;;;;4932351;29;20208;-68
2022/10/26 03:23:34;;;;;;;2.67;1.53;;;;;;;;;;4932105;29;20218;-68
2022/10/26 03:26:02;;;;;;;3.47;1.80;;;;;;;;;;4932454;29;20226;-68
2022/10/26 03:28:29;;;;;;;2.07;1.97;;;;;;;;;;4931746;29;20211;-68
2022/10/26 03:30:56;;;;;;;3.13;1.70;;;;;;;;;;4931910;29;20200;-68
2022/10/26 03:33:23;;;;;;;1.57;1.47;;;;;;;;;;4919560;29;20222;-68
2022/10/26 03:35:55;;;;;;;1.67;1.57;;;;;;;;;;4932000;29;20224;-68
2022/10/26 03:38:22;;;;;;;1.87;1.77;;;;;;;;;;4932418;29;20267;-67
2022/10/26 03:40:49;;;;;;;1.87;1.77;;;;;;;;;;4932651;29;20212;-68
2022/10/26 03:43:17;;;;;;;2.57;1.70;;;;;;;;;;4932933;29;20227;-68
2022/10/26 03:45:45;;;;;;;1.37;1.37;;;;;;;;;;4933168;29;20587;-68
2022/10/26 03:48:12;;;;;;;1.67;1.57;;;;;;;;;;4932573;29;20219;-68
2022/10/26 03:50:39;;;;;;;3.23;1.40;;;;;;;;;;4932463;29;20290;-68
2022/10/26 03:53:06;;;;;;;1.87;1.50;;;;;;;;;;4933246;29;20235;-68
2022/10/26 03:55:33;;;;;;;1.63;1.53;;;;;;;;;;4931868;29;20240;-68
2022/10/26 03:58:00;;;;;;;1.80;1.60;;;;;;;;;;4931903;29;20218;-68
2022/10/26 04:00:28;;;;;;;1.47;1.47;;;;;;;;;;4931838;29;20208;-68
2022/10/26 04:02:56;;;;;;;2.03;1.93;;;;;;;;;;4931934;29;20208;-68
2022/10/26 04:05:24;;;;;;;3.20;1.53;;;;;;;;;;4932490;29;20204;-70
2022/10/26 04:07:54;;;;;;;1.40;1.30;;;;;;;;;;4931979;29;20212;-68
2022/10/26 04:10:21;;;;;;;2.63;1.43;;;;;;;;;;4931257;29;20241;-68
2022/10/26 04:12:48;;;;;;;3.57;1.83;;;;;;;;;;4932601;29;20207;-68
2022/10/26 04:15:16;;;;;;;2.67;1.83;;;;;;;;;;4931418;29;20224;-68
2022/10/26 04:17:44;;;;;;;6.57;2.57;;;;;;;;;;4931606;29;20238;-68
2022/10/26 04:20:11;;;;;;;2.10;1.73;;;;;;;;;;4932205;29;20208;-68
2022/10/26 04:22:38;;;;;;;2.33;1.73;;;;;;;;;;4932127;29;20203;-67
2022/10/26 04:25:06;;;;;;;2.17;1.77;;;;;;;;;;4931861;29;20642;-68
2022/10/26 04:27:34;;;;;;;2.17;1.50;;;;;;;;;;4931154;29;20207;-67
2022/10/26 04:30:01;;;;;;;2.83;2.43;;;;;;;;;;4931180;29;20204;-68
2022/10/26 04:32:28;;;;;;;2.33;2.13;;;;;;;;;;4931241;29;20211;-67
2022/10/26 04:34:56;;;;;;;2.20;1.80;;;;;;;;;;4931523;29;20251;-68
2022/10/26 04:37:23;;;;;;;2.80;1.70;;;;;;;;;;4931851;29;20219;-67
2022/10/26 04:39:50;;;;;;;1.40;1.30;;;;;;;;;;4929028;29;20218;-68
2022/10/26 04:42:17;;;;;;;1.83;1.73;;;;;;;;;;4929921;29;20216;-67
2022/10/26 04:44:44;;;;;;;2.50;2.20;;;;;;;;;;4917331;29;20212;-68
2022/10/26 04:47:12;;;;;;;1.37;1.33;;;;;;;;;;4931522;29;20200;-68
2022/10/26 04:49:39;;;;;;;4.60;1.60;;;;;;;;;;4931654;29;20765;-68
2022/10/26 04:52:09;;;;;;;10.60;1.73;;;;;;;;;;4931825;29;20540;-69
2022/10/26 04:54:36;;;;;;;1.90;1.80;;;;;;;;;;4931762;29;20235;-69
2022/10/26 04:57:03;;;;;;;3.60;1.90;;;;;;;;;;4928246;29;20262;-69
2022/10/26 04:59:30;;;;;;;2.43;1.50;;;;;;;;;;4931540;29;20233;-68
2022/10/26 05:01:57;;;;;;;2.20;1.50;;;;;;;;;;4931636;29;20212;-68
2022/10/26 05:04:24;;;;;;;2.40;1.50;;;;;;;;;;4925197;29;20212;-68
2022/10/26 05:06:52;;;;;;;1.80;1.70;;;;;;;;;;4925258;29;20203;-68
2022/10/26 05:09:21;;;;;;;1.80;1.70;;;;;;;;;;4929092;29;20236;-68
2022/10/26 05:11:48;;;;;;;1.50;1.40;;;;;;;;;;4931155;29;20224;-68
2022/10/26 05:14:15;;;;;;;5.50;1.93;;;;;;;;;;4930922;29;20704;-69
2022/10/26 05:16:43;;;;;;;1.80;1.70;;;;;;;;;;4930945;29;20330;-68
2022/10/26 05:19:10;;;;;;;2.87;1.70;;;;;;;;;;4930998;29;20204;-68
2022/10/26 05:21:37;;;;;;;2.27;1.60;;;;;;;;;;4930798;29;20211;-69
2022/10/26 05:24:11;;;;;;;2.03;1.40;;;;;;;;;;4930447;29;20216;-72
2022/10/26 05:26:39;;;;;;;1.30;1.30;;;;;;;;;;4929664;29;20199;-67
2022/10/26 05:29:06;;;;;;;2.97;1.67;;;;;;;;;;4930967;29;20212;-67
2022/10/26 05:31:34;;;;;;;1.67;1.57;;;;;;;;;;4930307;29;20267;-68
2022/10/26 05:34:01;;;;;;;3.03;1.30;;;;;;;;;;4930786;29;20212;-67
2022/10/26 05:36:28;;;;;;;1.80;1.47;;;;;;;;;;4930582;29;20596;-67
2022/10/26 05:38:58;;;;;;;2.10;1.90;;;;;;;;;;4928155;29;20674;-68
2022/10/26 05:41:25;;;;;;;1.83;1.73;;;;;;;;;;4917073;29;20209;-69
2022/10/26 05:43:53;;;;;;;1.70;1.50;;;;;;;;;;4925277;29;20219;-68
2022/10/26 05:46:20;;;;;;;1.60;1.60;;;;;;;;;;4928610;29;20299;-68
2022/10/26 05:48:47;;;;;;;2.57;1.40;;;;;;;;;;4930821;29;20211;-69
2022/10/26 05:51:15;;;;;;;2.10;1.80;;;;;;;;;;4930230;29;20212;-69
2022/10/26 05:53:42;;;;;;;2.30;1.80;;;;;;;;;;4930456;29;20243;-68
2022/10/26 05:56:15;;;;;;;1.43;1.40;;;;;;;;;;4930180;29;20246;-68
2022/10/26 05:58:43;;;;;;;1.50;1.20;;;;;;;;;;4930407;29;20863;-68
2022/10/26 06:01:14;;;;;;;1.57;1.47;;;;;;;;;;4930674;29;20208;-67
2022/10/26 06:03:46;;;;;;;1.60;1.50;;;;;;;;;;4930243;29;20219;-68
2022/10/26 06:06:14;;;;;;;1.77;1.27;;;;;;;;;;4930253;29;20204;-68
2022/10/26 06:08:42;;;;;;;1.37;1.23;;;;;;;;;;4930602;29;20214;-68
2022/10/26 06:11:10;;;;;;;2.87;1.40;;;;;;;;;;4930352;29;20240;-68
2022/10/26 06:13:37;;;;;;;1.00;1.00;;;;;;;;;;4930331;29;20208;-68
2022/10/26 06:16:10;;;;;;;2.60;1.50;;;;;;;;;;4930239;29;20250;-68
2022/10/26 06:18:43;;;;;;;3.03;1.80;;;;;;;;;;4930450;29;20208;-68
2022/10/26 06:21:14;;;;;;;2.23;1.50;;;;;;;;;;4930372;29;20214;-68
2022/10/26 06:23:45;;;;;;;2.67;0.93;;;;;;;;;;4930113;29;20212;-68
2022/10/26 06:26:17;;;;;;;3.23;1.47;;;;;;;;;;4930314;29;20212;-68
2022/10/26 06:28:50;;;;;;;5.53;1.20;;;;;;;;;;4930184;29;20213;-68
2022/10/26 06:31:17;;;;;;;1.57;1.30;;;;;;;;;;4930242;29;20219;-68
2022/10/26 06:33:46;;;;;;;4.77;1.43;;;;;;;;;;4930670;29;20701;-68
2022/10/26 06:36:19;;;;;;;9.77;1.70;;;;;;;;;;4933952;29;20250;-68
2022/10/26 06:38:47;;;;;;;1.80;1.63;;;;;;;;;;4934038;29;20219;-68
2022/10/26 06:41:17;;;;;;;4.73;1.57;;;;;;;;;;4933713;29;20222;-68
2022/10/26 06:43:45;;;;;;;1.37;1.27;;;;;;;;;;4933786;29;20282;-68
2022/10/26 06:46:15;;;;;;;1.97;1.50;;;;;;;;;;4933782;29;20329;-68
2022/10/26 06:48:48;;;;;;;2.30;1.43;;;;;;;;;;4933858;29;20580;-69
2022/10/26 06:51:16;;;;;;;2.23;1.50;;;;;;;;;;4932743;29;20218;-68
2022/10/26 06:53:48;;;;;;;1.37;1.37;;;;;;;;;;4932834;29;20240;-68
2022/10/26 06:56:15;;;;;;;1.43;1.37;;;;;;;;;;4931544;29;20246;-68
2022/10/26 06:58:42;;;;;;;1.80;1.70;;;;;;;;;;4930709;29;20208;-68
2022/10/26 07:01:11;;;;;;;1.90;1.80;;;;;;;;;;4932860;29;20212;-68
2022/10/26 07:03:38;;;;;;;7.33;2.10;;;;;;;;;;4933287;29;20262;-68
2022/10/26 07:06:07;;;;;;;1.60;1.50;;;;;;;;;;4932605;29;20204;-68
2022/10/26 07:08:34;;;;;;;1.50;1.50;;;;;;;;;;4933012;29;20216;-68
2022/10/26 07:11:03;;;;;;;6.57;2.07;;;;;;;;;;4931726;29;20678;-67
2022/10/26 07:13:30;;;;;;;2.37;2.27;;;;;;;;;;4932739;29;20212;-71
2022/10/26 07:15:57;;;;;;;1.77;1.67;;;;;;;;;;4933160;29;20231;-69
2022/10/26 07:18:24;;;;;;;3.50;2.10;;;;;;;;;;4931567;29;20215;-69
2022/10/26 07:20:51;;;;;;;2.67;2.10;;;;;;;;;;4922018;29;20223;-69
2022/10/26 07:23:20;;;;;;;1.50;1.50;;;;;;;;;;4932542;29;20215;-69
2022/10/26 07:25:47;;;;;;;1.60;1.60;;;;;;;;;;4932582;29;20208;-70
2022/10/26 07:28:14;;;;;;;2.77;1.27;;;;;;;;;;4933502;29;20223;-70
2022/10/26 07:30:42;;;;;;;2.30;1.70;;;;;;;;;;4933851;29;20579;-70
2022/10/26 07:33:09;;;;;;;5.87;1.73;;;;;;;;;;4933422;29;20215;-70
2022/10/26 07:35:37;;;;;;;1.43;1.40;;;;;;;;;;4933322;29;20216;-70
2022/10/26 07:38:04;;;;;;;3.60;1.50;;;;;;;;;;4933777;29;20235;-70
2022/10/26 07:40:32;;;;;;;1.60;1.40;;;;;;;;;;4931511;29;20203;-70
2022/10/26 07:43:00;;;;;;;6.30;1.60;;;;;;;;;;4932880;29;20303;-70
2022/10/26 07:45:28;;;;;;;1.57;1.47;;;;;;;;;;4932609;29;20594;-70
2022/10/26 07:47:55;;;;;;;1.47;1.40;;;;;;;;;;4933220;29;20215;-69
2022/10/26 07:50:22;;;;;;;2.23;2.03;;;;;;;;;;4932961;29;20705;-69
2022/10/26 07:52:49;;;;;;;2.30;2.10;;;;;;;;;;4933080;29;20215;-69
2022/10/26 07:55:16;;;;;;;1.87;1.77;;;;;;;;;;4932825;29;20235;-69
2022/10/26 07:57:45;;;;;;;2.20;2.10;;;;;;;;;;4932590;29;20227;-69
2022/10/26 08:00:13;;;;;;;1.77;1.67;;;;;;;;;;4933128;29;20686;-69
2022/10/26 08:02:40;;;;;;;1.87;1.77;;;;;;;;;;4932565;29;20211;-69
2022/10/26 08:05:07;;;;;;;4.00;1.80;;;;;;;;;;4932816;29;20220;-69
2022/10/26 08:07:34;;;;;;;1.50;1.50;;;;;;;;;;4932455;29;20277;-70
2022/10/26 08:10:03;;;;;;;3.10;1.87;;;;;;;;;;4932809;29;20211;-70
2022/10/26 08:12:30;;;;;;;3.00;2.03;;;;;;;;;;4932408;29;20683;-69
2022/10/26 08:14:58;;;;;;;4.43;1.83;;;;;;;;;;4932524;29;20212;-69
2022/10/26 08:17:25;;;;;;;1.50;1.50;;;;;;;;;;4932322;29;20235;-69
2022/10/26 08:19:53;;;;;;;1.97;1.77;;;;;;;;;;4932262;29;20302;-71
2022/10/26 08:22:20;;;;;;;1.90;1.80;;;;;;;;;;4932797;29;20212;-70
2022/10/26 08:24:47;;;;;;;6.30;2.50;;;;;;;;;;4932675;29;20678;-69
2022/10/26 08:27:14;;;;;;;2.17;2.07;;;;;;;;;;4932463;29;20705;-69
2022/10/26 08:29:41;;;;;;;4.53;1.97;;;;;;;;;;4932640;29;20699;-69
2022/10/26 08:32:10;;;;;;;1.97;1.87;;;;;;;;;;4932374;29;20215;-70
2022/10/26 08:34:37;;;;;;;2.80;2.30;;;;;;;;;;4928474;29;20212;-69
2022/10/26 08:37:04;;;;;;;2.17;1.90;;;;;;;;;;4926500;29;20229;-69
2022/10/26 08:39:31;;;;;;;4.43;2.40;;;;;;;;;;4932569;29;20212;-67
2022/10/26 08:42:02;;;;;;;3.55;2.65;;;;;;;;;;4931567;29;20298;-72
2022/10/26 08:44:31;;;;;;;3.80;2.23;;;;;;;;;;4931835;29;20203;-74
2022/10/26 08:47:00;;;;;;;2.33;2.22;;;;;;;;;;4932551;29;20617;-69
2022/10/26 08:49:31;;;;;;;3.22;2.95;;;;;;;;;;4932191;29;20215;-70
2022/10/26 08:52:00;;;;;;;2.42;2.10;;;;;;;;;;4931281;29;20215;-71
2022/10/26 08:54:33;;;;;;;3.17;1.75;;;;;;;;;;4931810;29;20222;-70
2022/10/26 08:57:01;;;;;;;5.88;2.20;;;;;;;;;;4931589;29;20246;-70
2022/10/26 08:59:31;;;;;;;2.13;1.98;;;;;;;;;;4929729;29;20263;-70
2022/10/26 09:02:00;;;;;;;2.03;1.92;;;;;;;;;;4931908;29;20299;-70
2022/10/26 09:04:29;;;;;;;2.85;2.17;;;;;;;;;;4929819;29;20219;-70
2022/10/26 09:07:00;;;;;;;1.98;1.92;;;;;;;;;;4931878;29;20935;-67
2022/10/26 09:09:35;;;;;;;3.08;2.35;;;;;;;;;;4931412;29;20208;-71
2022/10/26 09:12:06;;;;;;;2.55;2.35;;;;;;;;;;4912733;29;20738;-72
2022/10/26 09:14:39;;;;;;;2.45;1.90;;;;;;;;;;4930364;29;20317;-75
2022/10/26 09:17:09;;;;;;;2.15;2.05;;;;;;;;;;4931289;29;20231;-69
2022/10/26 09:19:45;;;;;;;2.40;2.28;;;;;;;;;;4931096;29;20216;-66
2022/10/26 09:22:15;;;;;;;2.10;2.00;;;;;;;;;;4931304;29;20214;-68
2022/10/26 09:24:45;;;;;;;2.13;1.90;;;;;;;;;;4930314;29;20212;-70
2022/10/26 09:27:17;;;;;;;2.88;2.20;;;;;;;;;;4931455;29;20208;-70
2022/10/26 09:29:45;;;;;;;1.95;1.85;;;;;;;;;;4929846;29;20310;-70
2022/10/26 09:32:19;;;;;;;2.58;2.05;;;;;;;;;;4928691;29;20211;-70
2022/10/26 09:34:49;;;;;;;1.50;1.50;;;;;;;;;;4931757;29;20216;-72
2022/10/26 09:37:19;;;;;;;2.15;1.65;;;;;;;;;;4930885;29;20243;-70
2022/10/26 09:39:50;;;;;;;1.52;1.52;;;;;;;;;;4931519;29;20230;-70
2022/10/26 09:42:21;;;;;;;1.77;1.77;;;;;;;;;;4931099;29;20212;-71
2022/10/26 09:44:53;;;;;;;2.08;1.85;;;;;;;;;;4931178;29;20358;-71
2022/10/26 09:47:26;;;;;;;3.22;1.80;;;;;;;;;;4931670;29;20203;-72
2022/10/26 09:49:57;;;;;;;1.40;1.40;;;;;;;;;;4927525;29;20220;-72
2022/10/26 09:52:24;;;;;;;1.45;1.35;;;;;;;;;;4931188;29;20216;-72
2022/10/26 09:54:51;;;;;;;5.65;1.63;;;;;;;;;;4930056;29;20707;-71
2022/10/26 09:57:20;;;;;;;4.55;1.60;;;;;;;;;;4930053;29;20239;-70
2022/10/26 09:59:48;;;;;;;2.50;1.55;;;;;;;;;;4923233;29;20208;-71
2022/10/26 10:02:35;;;;;;;2.42;1.40;;;;;;;;;;4930673;29;20208;-68
2022/10/26 10:05:20;;;;;;;1.55;1.42;;;;;;;;;;4931305;29;20235;-71
2022/10/26 10:07:48;;;;;;;4.20;1.70;;;;;;;;;;4924905;29;20298;-72
2022/10/26 10:10:17;;;;;;;2.13;1.70;;;;;;;;;;4933505;29;20227;-71
2022/10/26 10:12:45;;;;;;;1.70;1.60;;;;;;;;;;4933098;29;20216;-71
2022/10/26 10:15:18;;;;;;;2.67;1.63;;;;;;;;;;4922510;29;20216;-71
2022/10/26 10:17:48;;;;;;;4.00;1.67;;;;;;;;;;4917836;29;20236;-71
2022/10/26 10:20:20;;;;;;;6.38;1.52;;;;;;;;;;4934561;29;20682;-74
2022/10/26 10:22:57;;;;;;;1.40;1.40;;;;;;;;;;4934689;29;20215;-71
2022/10/26 10:25:27;;;;;;;1.63;1.52;;;;;;;;;;4933448;29;20218;-71
2022/10/26 10:27:55;;;;;;;2.47;1.48;;;;;;;;;;4934393;29;20214;-71
2022/10/26 10:30:23;;;;;;;1.63;1.52;;;;;;;;;;4933883;29;20207;-71
2022/10/26 10:33:04;;;;;;;1.70;1.60;;;;;;;;;;4934481;29;20212;-72
2022/10/26 10:35:32;;;;;;;2.10;1.48;;;;;;;;;;4934580;29;20934;-71
2022/10/26 10:38:00;;;;;;;1.38;1.27;;;;;;;;;;4924063;29;20236;-72
2022/10/26 10:40:29;;;;;;;3.85;2.03;;;;;;;;;;4930968;29;20204;-71
2022/10/26 10:43:03;;;;;;;1.60;1.50;;;;;;;;;;4918537;29;20303;-73
2022/10/26 10:45:31;;;;;;;1.58;1.48;;;;;;;;;;4921422;29;20208;-72
2022/10/26 10:48:00;;;;;;;2.72;1.85;;;;;;;;;;4918063;29;20215;-72
2022/10/26 10:50:27;;;;;;;1.73;1.63;;;;;;;;;;4924136;29;20606;-71
2022/10/26 10:53:13;;;;;;;3.10;1.60;;;;;;;;;;4920393;29;20213;-71
2022/10/26 10:55:41;;;;;;;3.78;1.20;;;;;;;;;;4932445;29;20258;-73
2022/10/26 10:58:15;;;;;;;2.45;1.55;;;;;;;;;;4919725;29;20244;-71
2022/10/26 11:00:44;;;;;;;3.25;1.48;;;;;;;;;;4913493;29;20212;-73
2022/10/26 11:03:16;;;;;;;1.67;1.58;;;;;;;;;;4929377;29;20629;-74
2022/10/26 11:05:49;;;;;;;2.83;1.98;;;;;;;;;;4916848;29;20212;-73
2022/10/26 11:08:21;;;;;;;12.98;4.00;;;;;;;;;;4931315;29;20219;-74
2022/10/26 11:10:51;;;;;;;7.75;5.28;;;;;;;;;;4928551;29;20591;-74
2022/10/26 11:13:20;;;;;;;34.78;13.20;;;;;;;;;;4927480;29;20208;-73
2022/10/26 11:15:49;;;;;;;1.85;1.55;;;;;;;;;;4922897;29;20224;-71
2022/10/26 11:18:18;;;;;;;30.33;9.40;;;;;;;;;;4926099;29;20270;-70
2022/10/26 11:20:47;;;;;;;8.23;3.83;;;;;;;;;;4915921;29;20227;-72
2022/10/26 11:23:19;;;;;;;4.15;2.50;;;;;;;;;;4929694;29;20210;-71
2022/10/26 11:25:50;;;;;;;2.47;2.13;;;;;;;;;;4932616;29;20338;-71
2022/10/26 11:28:20;;;;;;;3.15;1.98;;;;;;;;;;4932144;29;20204;-71
2022/10/26 11:30:49;;;;;;;4.25;2.42;;;;;;;;;;4918140;29;20219;-70
2022/10/26 11:33:19;;;;;;;6.65;1.85;;;;;;;;;;4916615;29;20218;-68
2022/10/26 11:35:51;;;;;;;1.58;1.42;;;;;;;;;;4913579;29;20220;-74
2022/10/26 11:38:20;;;;;;;2.33;1.50;;;;;;;;;;4922950;29;20232;-71
2022/10/26 11:40:53;;;;;;;3.42;1.50;;;;;;;;;;4931246;29;20562;-77
2022/10/26 11:43:23;;;;;;;4.97;3.08;;;;;;;;;;4932859;29;20412;-73
2022/10/26 11:45:59;;;;;;;1.30;1.30;;;;;;;;;;4922054;29;20208;-73
2022/10/26 11:48:31;;;;;;;1.20;1.20;;;;;;;;;;4925439;29;20214;-72
2022/10/26 11:51:00;;;;;;;2.03;1.35;;;;;;;;;;4932762;29;20208;-75
2022/10/26 11:53:29;;;;;;;6.13;1.30;;;;;;;;;;4928415;29;20242;-77
2022/10/26 11:55:58;;;;;;;3.15;1.40;;;;;;;;;;4931958;29;20610;-69
2022/10/26 11:58:27;;;;;;;1.55;1.17;;;;;;;;;;4915838;29;20228;-68
2022/10/26 12:00:56;;;;;;;24.67;9.77;;;;;;;;;;4914777;29;20212;-69
2022/10/26 12:03:26;;;;;;;23.30;7.57;;;;;;;;;;4923164;29;20263;-71
2022/10/26 12:05:53;;;;;;;10.00;3.88;;;;;;;;;;4931656;29;20626;-74
2022/10/26 12:08:24;;;;;;;6.53;4.22;;;;;;;;;;4931583;29;20213;-74
2022/10/26 12:10:53;;;;;;;7.22;2.15;;;;;;;;;;4930507;29;20216;-74
2022/10/26 12:13:26;;;;;;;5.40;2.78;;;;;;;;;;4927990;29;20211;-74
2022/10/26 12:15:57;;;;;;;12.00;5.20;;;;;;;;;;4931735;29;20215;-73
2022/10/26 12:18:29;;;;;;;3.97;2.13;;;;;;;;;;4930965;29;20239;-73
2022/10/26 12:21:01;;;;;;;2.22;1.98;;;;;;;;;;4931239;29;20216;-73
2022/10/26 12:23:28;;;;;;;2.55;1.92;;;;;;;;;;4932033;29;20678;-73
2022/10/26 12:26:29;;;;;;;3.38;1.10;;;;;;;;;;4931855;29;20211;-73
2022/10/26 12:29:15;;;;;;;2.78;1.80;;;;;;;;;;4931625;29;20203;-73
2022/10/26 12:31:44;;;;;;;7.68;3.97;;;;;;;;;;4931871;29;20218;-73
2022/10/26 12:34:13;;;;;;;3.17;1.55;;;;;;;;;;4931832;29;20226;-73
2022/10/26 12:36:50;;;;;;;2.22;1.13;;;;;;;;;;4931631;29;20239;-74
2022/10/26 12:39:35;;;;;;;1.75;1.63;;;;;;;;;;4931712;29;21116;-74
2022/10/26 12:42:12;;;;;;;3.63;2.67;;;;;;;;;;4931568;29;20218;-72
2022/10/26 12:44:40;;;;;;;5.35;2.55;;;;;;;;;;4931380;29;20958;-73
2022/10/26 12:47:09;;;;;;;1.40;1.40;;;;;;;;;;4931216;29;20749;-74
2022/10/26 12:49:51;;;;;;;1.55;1.45;;;;;;;;;;4931749;29;20215;-74
2022/10/26 12:52:22;;;;;;;8.32;2.08;;;;;;;;;;4931589;29;20238;-74
2022/10/26 12:54:59;;;;;;;1.00;1.00;;;;;;;;;;4931261;29;20242;-74
2022/10/26 12:57:29;;;;;;;2.45;1.40;;;;;;;;;;4931177;29;20732;-74
2022/10/26 12:59:59;;;;;;;1.30;1.25;;;;;;;;;;4931328;29;20258;-73
2022/10/26 13:02:34;;;;;;;1.75;1.50;;;;;;;;;;4931348;29;20203;-73
2022/10/26 13:05:29;;;;;;;2.15;1.40;;;;;;;;;;4931200;29;20221;-73
2022/10/26 13:08:01;;;;;;;1.30;1.20;;;;;;;;;;4931541;29;20328;-73
2022/10/26 13:10:29;;;;;;;3.00;1.55;;;;;;;;;;4931122;29;20215;-73
2022/10/26 13:12:57;;;;;;;4.22;1.33;;;;;;;;;;4931140;29;20242;-73
2022/10/26 13:15:25;;;;;;;3.38;1.90;;;;;;;;;;4931157;29;20932;-73
2022/10/26 13:18:10;;;;;;;1.30;1.30;;;;;;;;;;4930830;29;20231;-73
2022/10/26 13:20:52;;;;;;;1.13;1.13;;;;;;;;;;4918367;29;20342;-73
2022/10/26 13:23:23;;;;;;;1.10;1.10;;;;;;;;;;4930752;29;20701;-73
2022/10/26 13:26:05;;;;;;;1.23;1.23;;;;;;;;;;4930790;29;20598;-75
2022/10/26 13:28:33;;;;;;;1.17;1.00;;;;;;;;;;4930436;29;20662;-74
2022/10/26 13:31:00;;;;;;;1.00;1.00;;;;;;;;;;4930566;29;20608;-74
2022/10/26 13:33:32;;;;;;;2.97;1.40;;;;;;;;;;4930534;29;20208;-73
2022/10/26 13:36:01;;;;;;;1.65;1.08;;;;;;;;;;4931017;29;20707;-74
2022/10/26 13:38:31;;;;;;;4.60;1.25;;;;;;;;;;4930509;29;20446;-75
2022/10/26 13:41:06;;;;;;;3.65;1.02;;;;;;;;;;4930013;29;20651;-74
2022/10/26 13:43:33;;;;;;;0.80;0.80;;;;;;;;;;4929663;29;20204;-74
2022/10/26 13:46:02;;;;;;;1.40;1.02;;;;;;;;;;4927122;29;20203;-75
2022/10/26 13:48:34;;;;;;;0.88;0.88;;;;;;;;;;4917032;29;20214;-73
2022/10/26 13:51:04;;;;;;;3.30;0.88;;;;;;;;;;4915068;29;20667;-71
2022/10/26 13:53:38;;;;;;;1.50;0.90;;;;;;;;;;4922344;29;20208;-75
2022/10/26 13:56:07;;;;;;;0.82;0.80;;;;;;;;;;4923145;29;20262;-76
2022/10/26 13:58:34;;;;;;;1.90;0.98;;;;;;;;;;4913197;29;20243;-74
2022/10/26 14:01:03;;;;;;;0.88;0.85;;;;;;;;;;4923817;29;20575;-75
2022/10/26 14:03:30;;;;;;;0.70;0.70;;;;;;;;;;4923928;29;20215;-73
2022/10/26 14:05:57;;;;;;;1.92;0.90;;;;;;;;;;4926841;29;20216;-73
2022/10/26 14:08:25;;;;;;;0.82;0.82;;;;;;;;;;4930276;29;20207;-75
2022/10/26 14:10:54;;;;;;;0.65;0.65;;;;;;;;;;4930341;29;20681;-74
2022/10/26 14:13:24;;;;;;;0.82;0.77;;;;;;;;;;4925546;29;20705;-74
2022/10/26 14:15:51;;;;;;;0.88;0.80;;;;;;;;;;4930523;29;20243;-75
2022/10/26 14:18:19;;;;;;;1.60;0.75;;;;;;;;;;4930029;29;20220;-75
2022/10/26 14:20:50;;;;;;;0.60;0.60;;;;;;;;;;4930117;29;20238;-75
2022/10/26 14:23:29;;;;;;;1.13;0.68;;;;;;;;;;4918089;29;20389;-75
2022/10/26 14:25:56;;;;;;;0.85;0.70;;;;;;;;;;4930445;29;20590;-75
2022/10/26 14:28:24;;;;;;;1.45;0.80;;;;;;;;;;4925060;29;20563;-75
2022/10/26 14:30:52;;;;;;;0.85;0.85;;;;;;;;;;4911542;29;20213;-74
2022/10/26 14:33:20;;;;;;;0.65;0.65;;;;;;;;;;4921660;29;20208;-74
2022/10/26 14:35:47;;;;;;;2.55;0.70;;;;;;;;;;4917243;29;20296;-75
2022/10/26 14:38:17;;;;;;;3.08;0.80;;;;;;;;;;4924456;29;20228;-73
2022/10/26 14:40:46;;;;;;;0.70;0.70;;;;;;;;;;4930348;29;20216;-73
2022/10/26 14:43:18;;;;;;;1.85;0.60;;;;;;;;;;4929624;29;20226;-77
2022/10/26 14:45:48;;;;;;;5.32;0.73;;;;;;;;;;4929736;29;20215;-76
2022/10/26 14:48:21;;;;;;;1.02;1.02;;;;;;;;;;4923907;29;20213;-76
2022/10/26 14:50:58;;;;;;;1.08;0.85;;;;;;;;;;4912356;29;21795;-74
2022/10/26 14:53:29;;;;;;;0.52;0.52;;;;;;;;;;4927634;29;20267;-74
2022/10/26 14:55:57;;;;;;;0.65;0.45;;;;;;;;;;4931604;29;20256;-75
2022/10/26 14:58:27;;;;;;;0.65;0.65;;;;;;;;;;4933032;29;20235;-75